createdAt,value
2023-02-27T00:00:00.077Z,0.65
2023-02-27T00:02:28.616Z,0.67
2023-02-27T00:04:58.293Z,0.66
2023-02-27T00:07:29.051Z,0.64
2023-02-27T00:09:57.512Z,0.65
2023-02-27T00:12:26.019Z,0.68
2023-02-27T00:14:54.511Z,0.67
2023-02-27T00:17:26.041Z,0.68
2023-02-27T00:19:54.618Z,0.67
2023-02-27T00:22:23.105Z,0.63
2023-02-27T00:24:51.713Z,0.56
2023-02-27T00:27:20.225Z,0.51
2023-02-27T00:29:48.812Z,0.49
2023-02-27T00:32:17.456Z,0.50
2023-02-27T00:34:48.960Z,0.45
2023-02-27T00:37:17.634Z,0.38
2023-02-27T00:39:46.104Z,0.39
2023-02-27T00:42:14.882Z,0.40
2023-02-27T00:44:43.493Z,0.40
2023-02-27T00:47:12.308Z,0.37
2023-02-27T00:49:41.321Z,0.33
2023-02-27T00:52:10.092Z,0.30
2023-02-27T00:54:38.634Z,0.32
2023-02-27T00:57:07.428Z,0.30
2023-02-27T00:59:35.772Z,0.27
2023-02-27T01:02:04.233Z,0.30
2023-02-27T01:04:32.779Z,0.29
2023-02-27T01:07:01.265Z,0.29
2023-02-27T01:09:29.799Z,0.28
2023-02-27T01:11:58.502Z,0.25
2023-02-27T01:14:27.124Z,0.25
2023-02-27T01:16:55.683Z,0.24
2023-02-27T01:19:25.404Z,0.22
2023-02-27T01:21:54.046Z,0.23
2023-02-27T01:24:22.599Z,0.22
2023-02-27T01:26:52.866Z,0.21
2023-02-27T01:29:21.441Z,0.17
2023-02-27T01:31:50.551Z,0.17
2023-02-27T01:34:19.113Z,0.16
2023-02-27T01:36:47.601Z,0.18
2023-02-27T01:39:17.706Z,0.20
2023-02-27T01:41:46.691Z,0.18
2023-02-27T01:44:15.108Z,0.18
2023-02-27T01:46:44.382Z,0.15
2023-02-27T01:49:24.320Z,0.12
2023-02-27T01:52:02.121Z,0.13
2023-02-27T01:54:35.409Z,0.20
2023-02-27T01:57:07.599Z,0.20
2023-02-27T01:59:39.845Z,0.19
2023-02-27T02:02:23.874Z,0.25
2023-02-27T02:04:55.261Z,0.30
2023-02-27T02:07:25.585Z,0.31
2023-02-27T02:09:57.347Z,0.24
2023-02-27T02:12:30.263Z,0.19
2023-02-27T02:14:58.780Z,0.19
2023-02-27T02:17:45.754Z,0.18
2023-02-27T02:20:45.824Z,0.16
2023-02-27T02:23:24.954Z,0.15
2023-02-27T02:26:12.155Z,0.16
2023-02-27T02:29:01.221Z,0.18
2023-02-27T02:31:32.787Z,0.14
2023-02-27T02:34:08.473Z,0.11
2023-02-27T02:36:58.306Z,0.14
2023-02-27T02:39:32.885Z,0.14
2023-02-27T02:42:04.421Z,0.11
2023-02-27T02:44:39.256Z,0.10
2023-02-27T02:47:17.015Z,0.08
2023-02-27T02:50:05.418Z,0.06
2023-02-27T02:53:00.858Z,0.07
2023-02-27T02:55:42.665Z,0.00
2023-02-27T02:58:22.723Z,-0.01
2023-02-27T03:01:22.856Z,-0.01
2023-02-27T03:04:04.963Z,0.02
2023-02-27T03:06:38.991Z,0.03
2023-02-27T03:09:17.287Z,-0.02
2023-02-27T03:11:49.161Z,0.02
2023-02-27T03:14:43.297Z,0.04
2023-02-27T03:17:19.721Z,0.02
2023-02-27T03:20:04.011Z,-0.01
2023-02-27T03:22:38.412Z,-0.03
2023-02-27T03:25:11.213Z,0.01
2023-02-27T03:27:54.122Z,0.05
2023-02-27T03:30:35.516Z,0.05
2023-02-27T03:33:27.994Z,0.04
2023-02-27T03:36:05.700Z,0.03
2023-02-27T03:38:42.239Z,0.02
2023-02-27T03:41:26.507Z,-0.01
2023-02-27T03:44:14.460Z,-0.03
2023-02-27T03:46:43.091Z,-0.07
2023-02-27T03:49:11.844Z,-0.08
2023-02-27T03:51:40.560Z,-0.10
2023-02-27T03:54:11.747Z,-0.13
2023-02-27T03:57:03.970Z,-0.25
2023-02-27T03:59:34.137Z,-0.32
2023-02-27T04:02:04.077Z,-0.47
2023-02-27T04:04:34.000Z,-0.52
2023-02-27T04:07:33.906Z,-0.58
2023-02-27T04:10:11.806Z,-0.55
2023-02-27T04:13:08.453Z,-0.63
2023-02-27T04:16:19.456Z,-0.66
2023-02-27T04:19:10.372Z,-0.71
2023-02-27T04:21:57.441Z,-0.69
2023-02-27T04:24:31.828Z,-0.64
2023-02-27T04:27:18.789Z,-0.58
2023-02-27T04:30:16.997Z,-0.56
2023-02-27T04:33:00.554Z,-0.51
2023-02-27T04:35:40.070Z,-0.60
2023-02-27T04:38:28.883Z,-0.68
2023-02-27T04:41:03.547Z,-0.80
2023-02-27T04:43:36.116Z,-0.89
2023-02-27T04:46:07.307Z,-0.80
2023-02-27T04:48:48.327Z,-0.81
2023-02-27T04:51:22.121Z,-0.81
2023-02-27T04:54:00.788Z,-0.79
2023-02-27T04:56:35.033Z,-0.81
2023-02-27T04:59:27.554Z,-0.83
2023-02-27T05:02:00.177Z,-0.81
2023-02-27T05:04:33.376Z,-0.74
2023-02-27T05:07:03.493Z,-0.69
2023-02-27T05:09:51.597Z,-0.67
2023-02-27T05:12:27.306Z,-0.68
2023-02-27T05:15:13.684Z,-0.64
2023-02-27T05:17:47.260Z,-0.66
2023-02-27T05:20:17.674Z,-0.78
2023-02-27T05:23:00.055Z,-0.77
2023-02-27T05:25:49.928Z,-0.66
2023-02-27T05:28:38.260Z,-0.59
2023-02-27T05:31:23.510Z,-0.52
2023-02-27T05:34:04.365Z,-0.50
2023-02-27T05:36:46.335Z,-0.50
2023-02-27T05:39:19.652Z,-0.48
2023-02-27T05:41:56.932Z,-0.43
2023-02-27T05:44:35.597Z,-0.36
2023-02-27T05:47:13.151Z,-0.29
2023-02-27T05:49:44.190Z,-0.30
2023-02-27T05:52:17.706Z,-0.29
2023-02-27T05:54:57.196Z,-0.29
2023-02-27T05:58:04.985Z,-0.28
2023-02-27T06:00:38.920Z,-0.32
2023-02-27T06:03:07.773Z,-0.29
2023-02-27T06:05:39.967Z,-0.28
2023-02-27T06:08:08.601Z,-0.20
2023-02-27T06:10:38.393Z,-0.12
2023-02-27T06:13:07.057Z,-0.08
2023-02-27T06:15:35.832Z,-0.04
2023-02-27T06:18:04.931Z,-0.04
2023-02-27T06:20:33.476Z,-0.00
2023-02-27T06:23:02.214Z,0.12
2023-02-27T06:25:30.967Z,0.04
2023-02-27T06:27:59.438Z,0.07
2023-02-27T06:30:28.201Z,0.15
2023-02-27T06:32:57.220Z,0.20
2023-02-27T06:35:25.742Z,0.18
2023-02-27T06:37:54.315Z,0.19
2023-02-27T06:40:23.421Z,0.09
2023-02-27T06:42:52.307Z,0.08
2023-02-27T06:45:20.881Z,0.20
2023-02-27T06:47:49.983Z,0.08
2023-02-27T06:50:18.872Z,0.11
2023-02-27T06:52:47.226Z,0.16
2023-02-27T06:55:20.528Z,0.18
2023-02-27T06:57:49.958Z,0.11
2023-02-27T07:00:19.151Z,0.28
2023-02-27T07:02:47.664Z,0.34
2023-02-27T07:05:16.304Z,0.32
2023-02-27T07:07:44.792Z,0.41
2023-02-27T07:10:14.541Z,0.41
2023-02-27T07:12:42.621Z,0.32
2023-02-27T07:15:11.506Z,0.33
2023-02-27T07:17:39.834Z,0.38
2023-02-27T07:20:10.766Z,0.39
2023-02-27T07:22:40.335Z,0.40
2023-02-27T07:25:09.565Z,0.38
2023-02-27T07:27:37.720Z,0.35
2023-02-27T07:30:06.535Z,0.31
2023-02-27T07:32:34.664Z,0.34
2023-02-27T07:35:04.041Z,0.34
2023-02-27T07:37:32.349Z,0.48
2023-02-27T07:40:00.428Z,0.56
2023-02-27T07:42:28.821Z,0.52
2023-02-27T07:44:56.901Z,0.50
2023-02-27T07:47:25.320Z,0.49
2023-02-27T07:49:53.652Z,0.55
2023-02-27T07:52:21.832Z,0.59
2023-02-27T07:54:50.138Z,0.65
2023-02-27T07:57:18.664Z,0.65
2023-02-27T07:59:48.470Z,0.69
2023-02-27T08:02:16.729Z,0.68
2023-02-27T08:04:45.870Z,0.63
2023-02-27T08:07:14.047Z,0.64
2023-02-27T08:09:42.109Z,0.63
2023-02-27T08:12:10.203Z,0.74
2023-02-27T08:14:39.036Z,0.79
2023-02-27T08:17:08.269Z,0.86
2023-02-27T08:19:36.497Z,0.79
2023-02-27T08:22:04.675Z,0.70
2023-02-27T08:24:32.713Z,0.61
2023-02-27T08:27:00.956Z,0.72
2023-02-27T08:29:31.061Z,0.54
2023-02-27T08:32:00.457Z,0.27
2023-02-27T08:34:30.313Z,0.44
2023-02-27T08:36:59.277Z,0.60
2023-02-27T08:39:27.276Z,0.66
2023-02-27T08:41:55.579Z,0.79
2023-02-27T08:44:23.746Z,0.98
2023-02-27T08:46:52.573Z,0.89
2023-02-27T08:49:22.722Z,1.04
2023-02-27T08:51:52.117Z,1.02
2023-02-27T08:54:20.878Z,1.03
2023-02-27T08:56:49.100Z,0.98
2023-02-27T08:59:17.237Z,1.35
2023-02-27T09:01:45.348Z,1.58
2023-02-27T09:04:13.635Z,1.82
2023-02-27T09:06:41.856Z,1.76
2023-02-27T09:09:10.463Z,1.74
2023-02-27T09:11:38.971Z,1.53
2023-02-27T09:14:07.990Z,1.49
2023-02-27T09:16:36.083Z,1.69
2023-02-27T09:19:04.861Z,1.75
2023-02-27T09:21:33.210Z,1.74
2023-02-27T09:24:17.137Z,1.67
2023-02-27T09:26:48.016Z,1.88
2023-02-27T09:29:16.627Z,1.92
2023-02-27T09:31:45.019Z,1.99
2023-02-27T09:34:13.333Z,2.01
2023-02-27T09:36:41.621Z,2.10
2023-02-27T09:39:10.779Z,2.06
2023-02-27T09:41:42.234Z,2.04
2023-02-27T09:44:39.756Z,2.02
2023-02-27T09:47:26.596Z,2.13
2023-02-27T09:50:08.059Z,2.21
2023-02-27T09:52:37.825Z,2.33
2023-02-27T09:55:15.423Z,2.34
2023-02-27T09:57:49.734Z,2.39
2023-02-27T10:00:38.423Z,2.49
2023-02-27T10:03:33.883Z,2.58
2023-02-27T10:06:26.650Z,2.60
2023-02-27T10:09:01.135Z,2.60
2023-02-27T10:11:43.593Z,2.66
2023-02-27T10:14:42.980Z,2.65
2023-02-27T10:17:22.630Z,2.80
2023-02-27T10:19:52.939Z,2.94
2023-02-27T10:22:33.926Z,3.04
2023-02-27T10:25:30.222Z,3.18
2023-02-27T10:28:11.248Z,3.40
2023-02-27T10:30:39.984Z,3.58
2023-02-27T10:33:28.310Z,3.80
2023-02-27T10:35:56.882Z,3.99
2023-02-27T10:39:00.286Z,4.13
2023-02-27T10:41:29.673Z,4.10
2023-02-27T10:44:00.202Z,4.16
2023-02-27T10:46:31.656Z,4.02
2023-02-27T10:49:01.905Z,4.06
2023-02-27T10:51:35.100Z,4.18
2023-02-27T10:54:23.820Z,4.15
2023-02-27T10:56:55.874Z,3.95
2023-02-27T10:59:37.521Z,3.74
2023-02-27T11:02:20.960Z,3.42
2023-02-27T11:04:56.666Z,3.02
2023-02-27T11:07:39.309Z,2.81
2023-02-27T11:10:13.530Z,2.67
2023-02-27T11:12:57.572Z,2.52
2023-02-27T11:15:30.178Z,2.37
2023-02-27T11:18:29.433Z,2.29
2023-02-27T11:21:29.145Z,2.38
2023-02-27T11:24:19.299Z,2.41
2023-02-27T11:27:05.464Z,2.44
2023-02-27T11:29:34.989Z,2.63
2023-02-27T11:32:22.131Z,2.86
2023-02-27T11:34:52.485Z,2.90
2023-02-27T11:37:37.121Z,3.07
2023-02-27T11:40:13.016Z,3.04
2023-02-27T11:42:51.213Z,2.89
2023-02-27T11:46:13.251Z,2.78
2023-02-27T11:48:23.673Z,2.80
2023-02-27T11:50:58.082Z,2.82
2023-02-27T11:53:44.811Z,2.94
2023-02-27T11:56:24.193Z,2.87
2023-02-27T11:59:04.528Z,2.75
2023-02-27T12:01:43.824Z,2.57
2023-02-27T12:04:24.228Z,2.51
2023-02-27T12:07:00.210Z,2.45
2023-02-27T12:09:43.120Z,2.36
2023-02-27T12:12:26.727Z,2.33
2023-02-27T12:15:05.540Z,2.37
2023-02-27T12:18:20.479Z,2.48
2023-02-27T12:20:55.759Z,2.54
2023-02-27T12:23:41.532Z,2.57
2023-02-27T12:26:31.923Z,2.72
2023-02-27T12:29:31.221Z,2.72
2023-02-27T12:32:10.377Z,2.96
2023-02-27T12:34:52.156Z,3.08
2023-02-27T12:37:25.093Z,3.20
2023-02-27T12:39:58.336Z,3.18
2023-02-27T12:42:36.246Z,3.14
2023-02-27T12:45:26.880Z,3.33
2023-02-27T12:48:09.908Z,3.47
2023-02-27T12:51:20.264Z,3.53
2023-02-27T12:54:13.025Z,3.69
2023-02-27T12:57:07.458Z,3.98
2023-02-27T13:00:06.781Z,4.21
2023-02-27T13:02:45.976Z,4.50
2023-02-27T13:05:24.984Z,4.59
2023-02-27T13:08:04.006Z,4.62
2023-02-27T13:10:40.781Z,4.39
2023-02-27T13:13:37.789Z,4.06
2023-02-27T13:16:33.524Z,3.91
2023-02-27T13:19:27.096Z,4.14
2023-02-27T13:22:16.189Z,3.95
2023-02-27T13:24:51.022Z,3.78
2023-02-27T13:27:25.335Z,3.87
2023-02-27T13:30:14.379Z,3.88
2023-02-27T13:32:54.576Z,3.78
2023-02-27T13:35:39.292Z,3.66
2023-02-27T13:38:29.547Z,3.55
2023-02-27T13:40:57.958Z,3.27
2023-02-27T13:43:43.317Z,3.21
2023-02-27T13:46:25.386Z,3.05
2023-02-27T13:48:54.827Z,3.13
2023-02-27T13:51:34.979Z,3.30
2023-02-27T13:54:15.229Z,3.41
2023-02-27T13:56:47.047Z,3.53
2023-02-27T13:59:34.260Z,3.57
2023-02-27T14:02:05.100Z,3.46
2023-02-27T14:04:36.989Z,3.48
2023-02-27T14:07:10.901Z,3.21
2023-02-27T14:09:42.667Z,2.96
2023-02-27T14:12:43.729Z,2.80
2023-02-27T14:15:22.515Z,2.79
2023-02-27T14:18:09.575Z,2.65
2023-02-27T14:20:39.902Z,2.63
2023-02-27T14:23:17.003Z,2.63
2023-02-27T14:25:54.803Z,2.85
2023-02-27T14:28:51.789Z,3.05
2023-02-27T14:31:31.216Z,3.08
2023-02-27T14:34:06.040Z,2.89
2023-02-27T14:36:58.327Z,2.99
2023-02-27T14:39:35.586Z,2.88
2023-02-27T14:42:24.133Z,2.73
2023-02-27T14:44:53.072Z,2.83
2023-02-27T14:47:27.190Z,2.74
2023-02-27T14:49:56.328Z,2.55
2023-02-27T14:52:29.837Z,2.64
2023-02-27T14:55:22.004Z,2.57
2023-02-27T14:57:55.193Z,2.45
2023-02-27T15:00:58.516Z,2.33
2023-02-27T15:03:38.978Z,2.23
2023-02-27T15:06:17.772Z,1.99
2023-02-27T15:08:52.386Z,1.83
2023-02-27T15:11:23.023Z,1.67
2023-02-27T15:14:01.528Z,1.53
2023-02-27T15:16:40.966Z,1.36
2023-02-27T15:19:17.645Z,1.37
2023-02-27T15:21:51.458Z,1.41
2023-02-27T15:24:40.582Z,1.52
2023-02-27T15:27:23.429Z,1.58
2023-02-27T15:29:57.178Z,1.48
2023-02-27T15:32:33.452Z,1.46
2023-02-27T15:35:05.500Z,1.43
2023-02-27T15:37:34.407Z,1.37
2023-02-27T15:40:06.027Z,1.22
2023-02-27T15:42:37.658Z,1.03
2023-02-27T15:45:07.720Z,0.88
2023-02-27T15:47:36.088Z,0.78
2023-02-27T15:50:12.416Z,0.64
2023-02-27T15:52:55.318Z,0.50
2023-02-27T15:55:31.252Z,0.48
2023-02-27T15:58:03.346Z,0.41
2023-02-27T16:00:35.283Z,0.36
2023-02-27T16:03:07.142Z,0.23
2023-02-27T16:05:41.638Z,0.15
2023-02-27T16:08:18.711Z,0.18
2023-02-27T16:10:47.782Z,0.14
2023-02-27T16:13:25.197Z,0.09
2023-02-27T16:16:26.696Z,0.02
2023-02-27T16:18:58.443Z,-0.00
2023-02-27T16:21:31.183Z,0.01
2023-02-27T16:24:19.223Z,-0.07
2023-02-27T16:26:53.162Z,-0.09
2023-02-27T16:29:33.918Z,-0.04
2023-02-27T16:32:03.860Z,-0.12
2023-02-27T16:34:45.547Z,-0.11
2023-02-27T16:37:27.197Z,-0.07
2023-02-27T16:39:55.250Z,-0.04
2023-02-27T16:42:23.359Z,-0.03
2023-02-27T16:44:51.614Z,-0.04
2023-02-27T16:47:19.672Z,-0.03
2023-02-27T16:49:49.637Z,0.03
2023-02-27T16:52:18.012Z,0.01
2023-02-27T16:54:46.281Z,0.03
2023-02-27T16:57:14.460Z,0.02
2023-02-27T16:59:44.143Z,0.07
2023-02-27T17:02:15.039Z,0.13
2023-02-27T17:04:44.516Z,0.18
2023-02-27T17:07:18.859Z,0.17
2023-02-27T17:09:47.717Z,0.10
2023-02-27T17:12:15.795Z,0.08
2023-02-27T17:14:44.053Z,0.07
2023-02-27T17:17:12.261Z,-0.03
2023-02-27T17:19:40.806Z,-0.11
2023-02-27T17:22:08.896Z,-0.14
2023-02-27T17:24:38.530Z,-0.14
2023-02-27T17:27:06.894Z,-0.09
2023-02-27T17:29:36.784Z,-0.03
2023-02-27T17:32:05.226Z,-0.04
2023-02-27T17:34:33.403Z,-0.02
2023-02-27T17:37:01.657Z,0.03
2023-02-27T17:39:29.789Z,0.06
2023-02-27T17:41:58.292Z,0.08
2023-02-27T17:44:27.100Z,0.05
2023-02-27T17:46:55.147Z,0.05
2023-02-27T17:49:23.317Z,0.01
2023-02-27T17:51:51.637Z,-0.03
2023-02-27T17:54:19.752Z,-0.08
2023-02-27T17:56:47.777Z,-0.12
2023-02-27T17:59:16.047Z,-0.12
2023-02-27T18:01:44.087Z,-0.15
2023-02-27T18:04:12.963Z,-0.15
2023-02-27T18:06:40.858Z,-0.14
2023-02-27T18:09:09.061Z,-0.16
2023-02-27T18:11:37.621Z,-0.18
2023-02-27T18:14:06.221Z,-0.20
2023-02-27T18:16:35.698Z,-0.20
2023-02-27T18:19:06.125Z,-0.22
2023-02-27T18:21:35.177Z,-0.26
2023-02-27T18:24:03.839Z,-0.28
2023-02-27T18:26:33.258Z,-0.29
2023-02-27T18:29:05.333Z,-0.26
2023-02-27T18:31:39.863Z,-0.29
2023-02-27T18:34:08.479Z,-0.30
2023-02-27T18:36:37.443Z,-0.31
2023-02-27T18:39:06.314Z,-0.36
2023-02-27T18:41:35.016Z,-0.41
2023-02-27T18:44:03.406Z,-0.48
2023-02-27T18:46:32.768Z,-0.50
2023-02-27T18:49:01.557Z,-0.52
2023-02-27T18:51:30.115Z,-0.48
2023-02-27T18:54:00.830Z,-0.48
2023-02-27T18:56:31.030Z,-0.49
2023-02-27T18:59:05.088Z,-0.51
2023-02-27T19:01:36.707Z,-0.58
2023-02-27T19:04:07.355Z,-0.60
2023-02-27T19:06:41.186Z,-0.58
2023-02-27T19:09:13.041Z,-0.59
2023-02-27T19:11:41.182Z,-0.61
2023-02-27T19:14:13.490Z,-0.64
2023-02-27T19:16:41.843Z,-0.65
2023-02-27T19:19:10.953Z,-0.58
2023-02-27T19:21:41.012Z,-0.55
2023-02-27T19:24:12.154Z,-0.66
2023-02-27T19:26:42.648Z,-0.62
2023-02-27T19:29:10.738Z,-0.63
2023-02-27T19:31:38.891Z,-0.62
2023-02-27T19:34:07.090Z,-0.74
2023-02-27T19:36:35.137Z,-0.63
2023-02-27T19:39:04.235Z,-0.57
2023-02-27T19:41:33.592Z,-0.57
2023-02-27T19:44:02.133Z,-0.53
2023-02-27T19:46:33.758Z,-0.53
2023-02-27T19:49:04.921Z,-0.53
2023-02-27T19:51:33.218Z,-0.53
2023-02-27T19:54:01.288Z,-0.54
2023-02-27T19:56:30.027Z,-0.54
2023-02-27T19:59:00.948Z,-0.55
2023-02-27T20:01:38.950Z,-0.56
2023-02-27T20:04:07.959Z,-0.57
2023-02-27T20:06:42.148Z,-0.60
2023-02-27T20:09:14.630Z,-0.63
2023-02-27T20:11:44.722Z,-0.78
2023-02-27T20:14:14.433Z,-0.86
2023-02-27T20:16:42.603Z,-0.82
2023-02-27T20:19:14.050Z,-0.86
2023-02-27T20:21:43.239Z,-0.83
2023-02-27T20:24:11.670Z,-0.79
2023-02-27T20:26:50.810Z,-0.80
2023-02-27T20:29:22.218Z,-0.71
2023-02-27T20:31:52.760Z,-0.69
2023-02-27T20:34:26.324Z,-0.67
2023-02-27T20:36:55.858Z,-0.64
2023-02-27T20:39:24.872Z,-0.60
2023-02-27T20:41:52.938Z,-0.61
2023-02-27T20:44:21.077Z,-0.59
2023-02-27T20:46:49.634Z,-0.66
2023-02-27T20:49:17.885Z,-0.79
2023-02-27T20:51:46.666Z,-0.81
2023-02-27T20:54:20.493Z,-0.73
2023-02-27T20:56:52.583Z,-0.72
2023-02-27T20:59:24.755Z,-0.77
2023-02-27T21:01:53.837Z,-0.82
2023-02-27T21:04:43.371Z,-0.82
2023-02-27T21:07:14.369Z,-0.92
2023-02-27T21:09:42.945Z,-1.09
2023-02-27T21:12:11.896Z,-1.05
2023-02-27T21:14:39.996Z,-1.11
2023-02-27T21:17:08.062Z,-1.08
2023-02-27T21:19:38.107Z,-1.15
2023-02-27T21:22:06.311Z,-1.16
2023-02-27T21:24:34.342Z,-1.13
2023-02-27T21:27:02.383Z,-1.12
2023-02-27T21:29:30.416Z,-1.19
2023-02-27T21:31:59.021Z,-1.12
2023-02-27T21:34:28.359Z,-1.13
2023-02-27T21:36:56.593Z,-1.05
2023-02-27T21:39:28.516Z,-1.03
2023-02-27T21:41:56.929Z,-1.03
2023-02-27T21:44:25.395Z,-1.02
2023-02-27T21:46:54.337Z,-0.97
2023-02-27T21:49:25.702Z,-0.90
2023-02-27T21:51:54.672Z,-0.82
2023-02-27T21:54:23.358Z,-0.82
2023-02-27T21:56:51.598Z,-0.85
2023-02-27T21:59:21.700Z,-0.88
2023-02-27T22:01:49.947Z,-0.90
2023-02-27T22:04:19.857Z,-0.94
2023-02-27T22:06:49.980Z,-0.95
2023-02-27T22:09:19.427Z,-1.01
2023-02-27T22:11:48.533Z,-0.98
2023-02-27T22:14:16.836Z,-0.98
2023-02-27T22:16:45.004Z,-1.01
2023-02-27T22:19:22.165Z,-1.04
2023-02-27T22:21:50.258Z,-1.17
2023-02-27T22:24:18.582Z,-1.15
2023-02-27T22:26:47.914Z,-1.20
2023-02-27T22:29:17.240Z,-1.17
2023-02-27T22:31:46.122Z,-1.05
2023-02-27T22:34:18.599Z,-1.09
2023-02-27T22:36:52.734Z,-1.09
2023-02-27T22:39:21.516Z,-1.05
2023-02-27T22:41:49.738Z,-1.12
2023-02-27T22:44:19.588Z,-1.13
2023-02-27T22:46:49.745Z,-1.12
2023-02-27T22:49:20.701Z,-1.07
2023-02-27T22:51:51.264Z,-1.11
2023-02-27T22:54:22.920Z,-1.23
2023-02-27T22:56:53.094Z,-1.25
2023-02-27T22:59:21.635Z,-1.30
2023-02-27T23:01:50.532Z,-1.24
2023-02-27T23:04:18.901Z,-1.16
2023-02-27T23:06:47.162Z,-1.17
2023-02-27T23:09:18.421Z,-1.20
2023-02-27T23:11:46.602Z,-1.19
2023-02-27T23:14:15.314Z,-1.16
2023-02-27T23:16:46.752Z,-1.14
2023-02-27T23:19:17.799Z,-1.12
2023-02-27T23:21:45.955Z,-1.13
2023-02-27T23:24:17.560Z,-1.11
2023-02-27T23:26:48.827Z,-1.06
2023-02-27T23:29:17.252Z,-1.03
2023-02-27T23:31:45.810Z,-0.98
2023-02-27T23:34:14.098Z,-0.96
2023-02-27T23:36:42.240Z,-1.00
2023-02-27T23:39:10.443Z,-1.03
2023-02-27T23:41:38.580Z,-1.08
2023-02-27T23:44:25.516Z,-1.03
2023-02-27T23:46:53.595Z,-1.02
2023-02-27T23:49:21.783Z,-0.96
2023-02-27T23:51:50.015Z,-0.90
2023-02-27T23:54:18.355Z,-0.86
2023-02-27T23:56:48.397Z,-0.83
2023-02-27T23:59:16.401Z,-0.87
